sensor_id;sensor_type;location;lat;lon;timestamp;P1;durP1;ratioP1;P2;durP2;ratioP2
21501;SDS011;27639;48.674;9.242;2023-04-28T00:01:21;12.05;;;7.38;;
21501;SDS011;27639;48.674;9.242;2023-04-28T00:03:46;14.15;;;7.72;;
21501;SDS011;27639;48.674;9.242;2023-04-28T00:06:12;12.40;;;7.65;;
21501;SDS011;27639;48.674;9.242;2023-04-28T00:08:38;10.10;;;6.85;;
21501;SDS011;27639;48.674;9.242;2023-04-28T00:11:07;9.23;;;6.85;;
21501;SDS011;27639;48.674;9.242;2023-04-28T00:13:34;12.63;;;7.20;;
21501;SDS011;27639;48.674;9.242;2023-04-28T00:15:59;10.55;;;7.72;;
21501;SDS011;27639;48.674;9.242;2023-04-28T00:18:25;10.27;;;6.97;;
21501;SDS011;27639;48.674;9.242;2023-04-28T00:20:51;11.00;;;7.05;;
21501;SDS011;27639;48.674;9.242;2023-04-28T00:23:16;12.40;;;7.03;;
21501;SDS011;27639;48.674;9.242;2023-04-28T00:25:42;10.18;;;7.30;;
21501;SDS011;27639;48.674;9.242;2023-04-28T00:28:07;9.07;;;6.05;;
21501;SDS011;27639;48.674;9.242;2023-04-28T00:30:33;10.55;;;6.80;;
21501;SDS011;27639;48.674;9.242;2023-04-28T00:32:59;8.02;;;6.43;;
21501;SDS011;27639;48.674;9.242;2023-04-28T00:35:24;14.32;;;7.90;;
21501;SDS011;27639;48.674;9.242;2023-04-28T00:37:50;10.00;;;7.20;;
21501;SDS011;27639;48.674;9.242;2023-04-28T00:40:15;9.82;;;7.40;;
21501;SDS011;27639;48.674;9.242;2023-04-28T00:42:41;8.85;;;6.20;;
21501;SDS011;27639;48.674;9.242;2023-04-28T00:45:06;11.20;;;7.05;;
21501;SDS011;27639;48.674;9.242;2023-04-28T00:47:33;8.90;;;6.63;;
21501;SDS011;27639;48.674;9.242;2023-04-28T00:49:59;11.43;;;6.68;;
21501;SDS011;27639;48.674;9.242;2023-04-28T00:52:26;9.82;;;6.72;;
21501;SDS011;27639;48.674;9.242;2023-04-28T00:54:52;11.00;;;7.10;;
21501;SDS011;27639;48.674;9.242;2023-04-28T00:57:18;9.98;;;6.65;;
21501;SDS011;27639;48.674;9.242;2023-04-28T00:59:44;10.15;;;6.70;;
21501;SDS011;27639;48.674;9.242;2023-04-28T01:02:10;8.68;;;6.38;;
21501;SDS011;27639;48.674;9.242;2023-04-28T01:04:41;10.27;;;6.68;;
21501;SDS011;27639;48.674;9.242;2023-04-28T01:07:08;9.95;;;6.75;;
21501;SDS011;27639;48.674;9.242;2023-04-28T01:09:34;8.65;;;6.88;;
21501;SDS011;27639;48.674;9.242;2023-04-28T01:11:59;10.05;;;6.72;;
21501;SDS011;27639;48.674;9.242;2023-04-28T01:14:25;7.65;;;6.18;;
21501;SDS011;27639;48.674;9.242;2023-04-28T01:16:51;9.32;;;6.68;;
21501;SDS011;27639;48.674;9.242;2023-04-28T01:19:21;7.82;;;6.32;;
21501;SDS011;27639;48.674;9.242;2023-04-28T01:21:48;11.18;;;7.32;;
21501;SDS011;27639;48.674;9.242;2023-04-28T01:24:14;10.45;;;6.53;;
21501;SDS011;27639;48.674;9.242;2023-04-28T01:26:40;9.82;;;6.43;;
21501;SDS011;27639;48.674;9.242;2023-04-28T01:29:05;10.13;;;6.05;;
21501;SDS011;27639;48.674;9.242;2023-04-28T01:31:31;9.98;;;6.55;;
21501;SDS011;27639;48.674;9.242;2023-04-28T01:33:56;10.27;;;6.07;;
21501;SDS011;27639;48.674;9.242;2023-04-28T01:36:22;8.38;;;6.03;;
21501;SDS011;27639;48.674;9.242;2023-04-28T01:38:48;8.93;;;6.47;;
21501;SDS011;27639;48.674;9.242;2023-04-28T01:41:14;10.15;;;6.70;;
21501;SDS011;27639;48.674;9.242;2023-04-28T01:43:40;8.10;;;6.70;;
21501;SDS011;27639;48.674;9.242;2023-04-28T01:46:07;8.55;;;6.18;;
21501;SDS011;27639;48.674;9.242;2023-04-28T01:48:33;10.30;;;6.60;;
21501;SDS011;27639;48.674;9.242;2023-04-28T01:50:59;9.10;;;6.40;;
21501;SDS011;27639;48.674;9.242;2023-04-28T01:53:24;10.82;;;6.85;;
21501;SDS011;27639;48.674;9.242;2023-04-28T01:55:50;9.07;;;6.45;;
21501;SDS011;27639;48.674;9.242;2023-04-28T01:58:15;8.88;;;6.43;;
21501;SDS011;27639;48.674;9.242;2023-04-28T02:00:41;10.25;;;6.28;;
21501;SDS011;27639;48.674;9.242;2023-04-28T02:03:07;8.60;;;6.30;;
21501;SDS011;27639;48.674;9.242;2023-04-28T02:05:32;8.30;;;6.30;;
21501;SDS011;27639;48.674;9.242;2023-04-28T02:07:58;9.75;;;6.38;;
21501;SDS011;27639;48.674;9.242;2023-04-28T02:10:23;9.00;;;6.03;;
21501;SDS011;27639;48.674;9.242;2023-04-28T02:12:49;9.43;;;5.78;;
21501;SDS011;27639;48.674;9.242;2023-04-28T02:15:15;8.48;;;6.38;;
21501;SDS011;27639;48.674;9.242;2023-04-28T02:17:41;8.68;;;6.72;;
21501;SDS011;27639;48.674;9.242;2023-04-28T02:20:06;9.07;;;6.45;;
21501;SDS011;27639;48.674;9.242;2023-04-28T02:22:32;9.52;;;6.68;;
21501;SDS011;27639;48.674;9.242;2023-04-28T02:24:58;10.10;;;6.95;;
21501;SDS011;27639;48.674;9.242;2023-04-28T02:27:23;8.60;;;6.20;;
21501;SDS011;27639;48.674;9.242;2023-04-28T02:29:49;9.80;;;7.00;;
21501;SDS011;27639;48.674;9.242;2023-04-28T02:32:14;10.20;;;6.80;;
21501;SDS011;27639;48.674;9.242;2023-04-28T02:34:40;9.68;;;6.60;;
21501;SDS011;27639;48.674;9.242;2023-04-28T02:37:05;10.80;;;6.45;;
21501;SDS011;27639;48.674;9.242;2023-04-28T02:39:31;9.27;;;6.22;;
21501;SDS011;27639;48.674;9.242;2023-04-28T02:41:57;10.18;;;6.50;;
21501;SDS011;27639;48.674;9.242;2023-04-28T02:44:23;13.73;;;6.85;;
21501;SDS011;27639;48.674;9.242;2023-04-28T02:46:48;9.63;;;6.60;;
21501;SDS011;27639;48.674;9.242;2023-04-28T02:49:14;11.38;;;6.88;;
21501;SDS011;27639;48.674;9.242;2023-04-28T02:51:40;11.55;;;6.93;;
21501;SDS011;27639;48.674;9.242;2023-04-28T02:54:05;11.18;;;7.18;;
21501;SDS011;27639;48.674;9.242;2023-04-28T02:56:31;12.25;;;7.13;;
21501;SDS011;27639;48.674;9.242;2023-04-28T02:58:57;8.63;;;6.95;;
21501;SDS011;27639;48.674;9.242;2023-04-28T03:01:23;11.35;;;6.75;;
21501;SDS011;27639;48.674;9.242;2023-04-28T03:03:48;11.05;;;6.75;;
21501;SDS011;27639;48.674;9.242;2023-04-28T03:06:14;10.68;;;6.57;;
21501;SDS011;27639;48.674;9.242;2023-04-28T03:08:40;9.40;;;6.57;;
21501;SDS011;27639;48.674;9.242;2023-04-28T03:11:05;9.00;;;6.60;;
21501;SDS011;27639;48.674;9.242;2023-04-28T03:13:31;11.07;;;6.63;;
21501;SDS011;27639;48.674;9.242;2023-04-28T03:15:58;12.57;;;6.55;;
21501;SDS011;27639;48.674;9.242;2023-04-28T03:18:23;9.95;;;6.65;;
21501;SDS011;27639;48.674;9.242;2023-04-28T03:20:49;8.20;;;6.13;;
21501;SDS011;27639;48.674;9.242;2023-04-28T03:23:15;9.60;;;6.63;;
21501;SDS011;27639;48.674;9.242;2023-04-28T03:25:40;9.23;;;6.60;;
21501;SDS011;27639;48.674;9.242;2023-04-28T03:28:06;8.23;;;5.95;;
21501;SDS011;27639;48.674;9.242;2023-04-28T03:30:31;9.05;;;6.60;;
21501;SDS011;27639;48.674;9.242;2023-04-28T03:32:57;8.57;;;5.97;;
21501;SDS011;27639;48.674;9.242;2023-04-28T03:35:23;8.82;;;6.65;;
21501;SDS011;27639;48.674;9.242;2023-04-28T03:37:48;9.55;;;6.53;;
21501;SDS011;27639;48.674;9.242;2023-04-28T03:40:14;9.27;;;6.57;;
21501;SDS011;27639;48.674;9.242;2023-04-28T03:42:40;9.52;;;6.50;;
21501;SDS011;27639;48.674;9.242;2023-04-28T03:45:06;9.57;;;6.03;;
21501;SDS011;27639;48.674;9.242;2023-04-28T03:47:32;10.70;;;6.18;;
21501;SDS011;27639;48.674;9.242;2023-04-28T03:49:58;8.38;;;6.75;;
21501;SDS011;27639;48.674;9.242;2023-04-28T03:52:24;8.95;;;6.72;;
21501;SDS011;27639;48.674;9.242;2023-04-28T03:54:50;8.55;;;6.32;;
21501;SDS011;27639;48.674;9.242;2023-04-28T03:57:15;8.27;;;6.40;;
21501;SDS011;27639;48.674;9.242;2023-04-28T03:59:41;9.05;;;6.05;;
21501;SDS011;27639;48.674;9.242;2023-04-28T04:02:07;9.48;;;6.38;;
21501;SDS011;27639;48.674;9.242;2023-04-28T04:04:32;8.52;;;6.63;;
21501;SDS011;27639;48.674;9.242;2023-04-28T04:06:58;9.23;;;6.50;;
21501;SDS011;27639;48.674;9.242;2023-04-28T04:09:24;9.63;;;6.63;;
21501;SDS011;27639;48.674;9.242;2023-04-28T04:11:50;8.68;;;6.18;;
21501;SDS011;27639;48.674;9.242;2023-04-28T04:14:15;8.55;;;6.40;;
21501;SDS011;27639;48.674;9.242;2023-04-28T04:16:41;9.77;;;6.50;;
21501;SDS011;27639;48.674;9.242;2023-04-28T04:19:07;8.95;;;6.25;;
21501;SDS011;27639;48.674;9.242;2023-04-28T04:21:32;10.75;;;6.40;;
21501;SDS011;27639;48.674;9.242;2023-04-28T04:23:58;8.82;;;6.65;;
21501;SDS011;27639;48.674;9.242;2023-04-28T04:26:24;9.73;;;6.97;;
21501;SDS011;27639;48.674;9.242;2023-04-28T04:28:49;9.98;;;6.55;;
21501;SDS011;27639;48.674;9.242;2023-04-28T04:31:15;10.00;;;6.57;;
21501;SDS011;27639;48.674;9.242;2023-04-28T04:33:42;9.73;;;6.78;;
21501;SDS011;27639;48.674;9.242;2023-04-28T04:36:07;9.55;;;6.47;;
21501;SDS011;27639;48.674;9.242;2023-04-28T04:38:33;9.18;;;6.55;;
21501;SDS011;27639;48.674;9.242;2023-04-28T04:40:58;9.40;;;7.28;;
21501;SDS011;27639;48.674;9.242;2023-04-28T04:43:24;9.45;;;7.63;;
21501;SDS011;27639;48.674;9.242;2023-04-28T04:45:49;10.85;;;6.55;;
21501;SDS011;27639;48.674;9.242;2023-04-28T04:48:15;6.93;;;6.13;;
21501;SDS011;27639;48.674;9.242;2023-04-28T04:50:41;11.50;;;6.82;;
21501;SDS011;27639;48.674;9.242;2023-04-28T04:53:07;9.88;;;6.68;;
21501;SDS011;27639;48.674;9.242;2023-04-28T04:55:33;9.40;;;6.90;;
21501;SDS011;27639;48.674;9.242;2023-04-28T04:57:58;8.98;;;7.15;;
21501;SDS011;27639;48.674;9.242;2023-04-28T05:00:24;10.75;;;7.03;;
21501;SDS011;27639;48.674;9.242;2023-04-28T05:02:50;9.95;;;6.75;;
21501;SDS011;27639;48.674;9.242;2023-04-28T05:05:15;8.75;;;6.80;;
21501;SDS011;27639;48.674;9.242;2023-04-28T05:07:41;9.00;;;6.45;;
21501;SDS011;27639;48.674;9.242;2023-04-28T05:10:07;9.05;;;6.10;;
21501;SDS011;27639;48.674;9.242;2023-04-28T05:12:35;8.77;;;5.53;;
21501;SDS011;27639;48.674;9.242;2023-04-28T05:15:01;5.65;;;3.83;;
21501;SDS011;27639;48.674;9.242;2023-04-28T05:17:26;5.95;;;3.47;;
21501;SDS011;27639;48.674;9.242;2023-04-28T05:19:52;5.68;;;3.13;;
21501;SDS011;27639;48.674;9.242;2023-04-28T05:22:17;4.75;;;3.00;;
21501;SDS011;27639;48.674;9.242;2023-04-28T05:24:43;5.45;;;3.28;;
21501;SDS011;27639;48.674;9.242;2023-04-28T05:27:08;5.72;;;3.40;;
21501;SDS011;27639;48.674;9.242;2023-04-28T05:29:34;4.88;;;3.20;;
21501;SDS011;27639;48.674;9.242;2023-04-28T05:32:00;5.03;;;3.47;;
21501;SDS011;27639;48.674;9.242;2023-04-28T05:34:26;4.65;;;3.25;;
21501;SDS011;27639;48.674;9.242;2023-04-28T05:36:51;5.40;;;3.40;;
21501;SDS011;27639;48.674;9.242;2023-04-28T05:39:17;5.75;;;3.30;;
21501;SDS011;27639;48.674;9.242;2023-04-28T05:41:42;5.25;;;3.50;;
21501;SDS011;27639;48.674;9.242;2023-04-28T05:44:08;5.65;;;3.88;;
21501;SDS011;27639;48.674;9.242;2023-04-28T05:46:34;5.80;;;3.58;;
21501;SDS011;27639;48.674;9.242;2023-04-28T05:49:00;5.35;;;3.60;;
21501;SDS011;27639;48.674;9.242;2023-04-28T05:51:26;5.85;;;4.20;;
21501;SDS011;27639;48.674;9.242;2023-04-28T05:53:52;5.10;;;3.55;;
21501;SDS011;27639;48.674;9.242;2023-04-28T05:56:17;6.05;;;4.20;;
21501;SDS011;27639;48.674;9.242;2023-04-28T05:58:43;7.35;;;4.10;;
21501;SDS011;27639;48.674;9.242;2023-04-28T06:01:09;6.50;;;3.85;;
21501;SDS011;27639;48.674;9.242;2023-04-28T06:03:35;7.47;;;4.50;;
21501;SDS011;27639;48.674;9.242;2023-04-28T06:06:01;6.80;;;4.25;;
21501;SDS011;27639;48.674;9.242;2023-04-28T06:08:27;6.47;;;4.28;;
21501;SDS011;27639;48.674;9.242;2023-04-28T06:10:52;8.30;;;4.60;;
21501;SDS011;27639;48.674;9.242;2023-04-28T06:13:18;6.32;;;4.70;;
21501;SDS011;27639;48.674;9.242;2023-04-28T06:15:43;7.18;;;4.60;;
21501;SDS011;27639;48.674;9.242;2023-04-28T06:18:09;7.82;;;4.70;;
21501;SDS011;27639;48.674;9.242;2023-04-28T06:20:35;7.32;;;5.00;;
21501;SDS011;27639;48.674;9.242;2023-04-28T06:23:01;7.40;;;5.13;;
21501;SDS011;27639;48.674;9.242;2023-04-28T06:25:27;9.32;;;6.53;;
21501;SDS011;27639;48.674;9.242;2023-04-28T06:27:53;7.63;;;6.18;;
21501;SDS011;27639;48.674;9.242;2023-04-28T06:30:21;7.45;;;6.30;;
21501;SDS011;27639;48.674;9.242;2023-04-28T06:32:47;6.85;;;5.72;;
21501;SDS011;27639;48.674;9.242;2023-04-28T06:35:14;6.82;;;5.40;;
21501;SDS011;27639;48.674;9.242;2023-04-28T06:37:40;12.38;;;6.55;;
21501;SDS011;27639;48.674;9.242;2023-04-28T06:40:06;8.95;;;5.50;;
21501;SDS011;27639;48.674;9.242;2023-04-28T06:42:32;12.30;;;5.88;;
21501;SDS011;27639;48.674;9.242;2023-04-28T06:44:58;13.43;;;6.65;;
21501;SDS011;27639;48.674;9.242;2023-04-28T06:47:23;10.13;;;6.25;;
21501;SDS011;27639;48.674;9.242;2023-04-28T06:49:49;10.95;;;5.53;;
21501;SDS011;27639;48.674;9.242;2023-04-28T06:52:15;9.77;;;6.25;;
21501;SDS011;27639;48.674;9.242;2023-04-28T06:54:41;8.27;;;5.57;;
21501;SDS011;27639;48.674;9.242;2023-04-28T06:57:06;7.07;;;5.53;;
21501;SDS011;27639;48.674;9.242;2023-04-28T06:59:32;8.68;;;5.80;;
21501;SDS011;27639;48.674;9.242;2023-04-28T07:01:58;12.80;;;6.63;;
21501;SDS011;27639;48.674;9.242;2023-04-28T07:04:24;21.17;;;7.55;;
21501;SDS011;27639;48.674;9.242;2023-04-28T07:06:51;17.00;;;6.25;;
21501;SDS011;27639;48.674;9.242;2023-04-28T07:09:16;14.05;;;6.45;;
21501;SDS011;27639;48.674;9.242;2023-04-28T07:11:42;12.40;;;6.97;;
21501;SDS011;27639;48.674;9.242;2023-04-28T07:14:08;13.70;;;6.82;;
21501;SDS011;27639;48.674;9.242;2023-04-28T07:16:34;13.52;;;7.00;;
21501;SDS011;27639;48.674;9.242;2023-04-28T07:19:00;9.40;;;6.18;;
21501;SDS011;27639;48.674;9.242;2023-04-28T07:21:25;9.30;;;6.35;;
21501;SDS011;27639;48.674;9.242;2023-04-28T07:23:52;7.93;;;6.60;;
21501;SDS011;27639;48.674;9.242;2023-04-28T07:26:21;9.30;;;6.13;;
21501;SDS011;27639;48.674;9.242;2023-04-28T07:28:47;9.73;;;6.30;;
21501;SDS011;27639;48.674;9.242;2023-04-28T07:31:12;9.23;;;6.28;;
21501;SDS011;27639;48.674;9.242;2023-04-28T07:33:38;8.40;;;6.20;;
21501;SDS011;27639;48.674;9.242;2023-04-28T07:36:04;8.20;;;5.90;;
21501;SDS011;27639;48.674;9.242;2023-04-28T07:38:29;9.07;;;6.47;;
21501;SDS011;27639;48.674;9.242;2023-04-28T07:40:55;8.18;;;5.70;;
21501;SDS011;27639;48.674;9.242;2023-04-28T07:43:21;8.07;;;5.93;;
21501;SDS011;27639;48.674;9.242;2023-04-28T07:45:46;7.95;;;6.03;;
21501;SDS011;27639;48.674;9.242;2023-04-28T07:48:13;7.53;;;5.57;;
21501;SDS011;27639;48.674;9.242;2023-04-28T07:50:40;7.05;;;5.25;;
21501;SDS011;27639;48.674;9.242;2023-04-28T07:53:05;7.93;;;5.55;;
21501;SDS011;27639;48.674;9.242;2023-04-28T07:55:31;7.80;;;5.13;;
21501;SDS011;27639;48.674;9.242;2023-04-28T07:57:57;6.35;;;4.85;;
21501;SDS011;27639;48.674;9.242;2023-04-28T08:00:23;7.20;;;4.80;;
21501;SDS011;27639;48.674;9.242;2023-04-28T08:02:48;7.82;;;5.30;;
21501;SDS011;27639;48.674;9.242;2023-04-28T08:05:15;7.28;;;5.32;;
21501;SDS011;27639;48.674;9.242;2023-04-28T08:07:41;8.07;;;5.90;;
21501;SDS011;27639;48.674;9.242;2023-04-28T08:10:08;9.23;;;6.03;;
21501;SDS011;27639;48.674;9.242;2023-04-28T08:12:34;6.13;;;4.20;;
21501;SDS011;27639;48.674;9.242;2023-04-28T08:15:00;6.78;;;4.22;;
21501;SDS011;27639;48.674;9.242;2023-04-28T08:17:26;6.10;;;4.00;;
21501;SDS011;27639;48.674;9.242;2023-04-28T08:19:51;5.22;;;3.58;;
21501;SDS011;27639;48.674;9.242;2023-04-28T08:22:17;5.47;;;3.60;;
21501;SDS011;27639;48.674;9.242;2023-04-28T08:24:42;4.97;;;3.85;;
21501;SDS011;27639;48.674;9.242;2023-04-28T08:27:08;4.50;;;3.50;;
21501;SDS011;27639;48.674;9.242;2023-04-28T08:29:34;6.10;;;3.58;;
21501;SDS011;27639;48.674;9.242;2023-04-28T08:31:59;5.80;;;3.53;;
21501;SDS011;27639;48.674;9.242;2023-04-28T08:34:26;6.82;;;4.03;;
21501;SDS011;27639;48.674;9.242;2023-04-28T08:36:51;5.85;;;3.60;;
21501;SDS011;27639;48.674;9.242;2023-04-28T08:39:17;8.15;;;3.70;;
21501;SDS011;27639;48.674;9.242;2023-04-28T08:41:44;5.43;;;3.53;;
21501;SDS011;27639;48.674;9.242;2023-04-28T08:44:10;6.97;;;4.03;;
21501;SDS011;27639;48.674;9.242;2023-04-28T08:46:39;8.38;;;4.53;;
21501;SDS011;27639;48.674;9.242;2023-04-28T08:49:13;8.60;;;4.78;;
21501;SDS011;27639;48.674;9.242;2023-04-28T08:51:44;5.97;;;3.83;;
21501;SDS011;27639;48.674;9.242;2023-04-28T08:54:14;6.22;;;3.40;;
21501;SDS011;27639;48.674;9.242;2023-04-28T08:56:44;4.45;;;3.15;;
21501;SDS011;27639;48.674;9.242;2023-04-28T08:59:10;5.00;;;3.33;;
21501;SDS011;27639;48.674;9.242;2023-04-28T09:01:37;5.07;;;3.17;;
21501;SDS011;27639;48.674;9.242;2023-04-28T09:04:03;6.38;;;3.25;;
21501;SDS011;27639;48.674;9.242;2023-04-28T09:06:33;6.25;;;2.90;;
21501;SDS011;27639;48.674;9.242;2023-04-28T09:12:01;5.00;;;3.13;;
21501;SDS011;27639;48.674;9.242;2023-04-28T09:14:29;4.80;;;2.72;;
21501;SDS011;27639;48.674;9.242;2023-04-28T09:16:57;5.20;;;3.65;;
21501;SDS011;27639;48.674;9.242;2023-04-28T09:19:23;6.35;;;3.50;;
21501;SDS011;27639;48.674;9.242;2023-04-28T09:21:56;7.68;;;4.07;;
21501;SDS011;27639;48.674;9.242;2023-04-28T09:26:55;5.78;;;3.60;;
21501;SDS011;27639;48.674;9.242;2023-04-28T09:29:21;4.15;;;2.85;;
21501;SDS011;27639;48.674;9.242;2023-04-28T09:31:47;4.95;;;3.17;;
21501;SDS011;27639;48.674;9.242;2023-04-28T09:34:13;5.57;;;3.00;;
21501;SDS011;27639;48.674;9.242;2023-04-28T09:36:39;6.32;;;3.03;;
21501;SDS011;27639;48.674;9.242;2023-04-28T09:39:05;5.72;;;2.80;;
21501;SDS011;27639;48.674;9.242;2023-04-28T09:41:34;4.18;;;2.97;;
21501;SDS011;27639;48.674;9.242;2023-04-28T09:46:42;4.93;;;2.90;;
21501;SDS011;27639;48.674;9.242;2023-04-28T09:49:10;4.78;;;3.20;;
21501;SDS011;27639;48.674;9.242;2023-04-28T09:51:37;5.07;;;3.58;;
21501;SDS011;27639;48.674;9.242;2023-04-28T09:54:03;5.55;;;3.60;;
21501;SDS011;27639;48.674;9.242;2023-04-28T09:56:29;4.47;;;2.95;;
21501;SDS011;27639;48.674;9.242;2023-04-28T09:58:57;3.92;;;2.83;;
21501;SDS011;27639;48.674;9.242;2023-04-28T10:01:26;4.05;;;2.45;;
21501;SDS011;27639;48.674;9.242;2023-04-28T10:03:55;4.07;;;3.00;;
21501;SDS011;27639;48.674;9.242;2023-04-28T10:06:23;3.80;;;2.40;;
21501;SDS011;27639;48.674;9.242;2023-04-28T10:08:49;3.55;;;2.25;;
21501;SDS011;27639;48.674;9.242;2023-04-28T10:11:16;4.20;;;2.17;;
21501;SDS011;27639;48.674;9.242;2023-04-28T10:13:42;3.90;;;2.28;;
21501;SDS011;27639;48.674;9.242;2023-04-28T10:16:09;4.22;;;2.30;;
21501;SDS011;27639;48.674;9.242;2023-04-28T10:18:35;3.60;;;2.00;;
21501;SDS011;27639;48.674;9.242;2023-04-28T10:21:02;4.07;;;1.75;;
21501;SDS011;27639;48.674;9.242;2023-04-28T10:26:29;4.07;;;2.25;;
21501;SDS011;27639;48.674;9.242;2023-04-28T10:29:22;3.13;;;1.80;;
21501;SDS011;27639;48.674;9.242;2023-04-28T10:34:44;3.40;;;1.65;;
21501;SDS011;27639;48.674;9.242;2023-04-28T10:37:11;3.65;;;1.60;;
21501;SDS011;27639;48.674;9.242;2023-04-28T10:39:39;3.78;;;1.70;;
21501;SDS011;27639;48.674;9.242;2023-04-28T10:42:25;3.80;;;1.60;;
21501;SDS011;27639;48.674;9.242;2023-04-28T10:45:09;2.83;;;1.40;;
21501;SDS011;27639;48.674;9.242;2023-04-28T10:48:08;3.15;;;1.67;;
21501;SDS011;27639;48.674;9.242;2023-04-28T10:50:28;3.40;;;2.00;;
21501;SDS011;27639;48.674;9.242;2023-04-28T10:52:55;3.42;;;1.90;;
21501;SDS011;27639;48.674;9.242;2023-04-28T10:55:27;4.38;;;1.77;;
21501;SDS011;27639;48.674;9.242;2023-04-28T11:00:44;2.53;;;1.23;;
21501;SDS011;27639;48.674;9.242;2023-04-28T11:06:24;3.25;;;1.30;;
21501;SDS011;27639;48.674;9.242;2023-04-28T11:09:01;2.35;;;1.15;;
21501;SDS011;27639;48.674;9.242;2023-04-28T11:13:54;2.90;;;1.30;;
21501;SDS011;27639;48.674;9.242;2023-04-28T11:19:14;2.97;;;1.33;;
21501;SDS011;27639;48.674;9.242;2023-04-28T11:21:43;3.10;;;1.30;;
21501;SDS011;27639;48.674;9.242;2023-04-28T11:24:11;2.97;;;1.20;;
21501;SDS011;27639;48.674;9.242;2023-04-28T11:26:37;2.90;;;1.25;;
21501;SDS011;27639;48.674;9.242;2023-04-28T11:29:03;2.75;;;1.20;;
21501;SDS011;27639;48.674;9.242;2023-04-28T11:31:29;2.97;;;1.20;;
21501;SDS011;27639;48.674;9.242;2023-04-28T11:34:05;3.58;;;1.30;;
21501;SDS011;27639;48.674;9.242;2023-04-28T11:36:38;2.58;;;1.17;;
21501;SDS011;27639;48.674;9.242;2023-04-28T11:39:06;4.18;;;2.78;;
21501;SDS011;27639;48.674;9.242;2023-04-28T11:41:34;2.65;;;1.60;;
21501;SDS011;27639;48.674;9.242;2023-04-28T11:44:08;2.33;;;1.23;;
21501;SDS011;27639;48.674;9.242;2023-04-28T11:47:10;3.17;;;1.00;;
21501;SDS011;27639;48.674;9.242;2023-04-28T11:49:30;4.38;;;2.40;;
21501;SDS011;27639;48.674;9.242;2023-04-28T11:52:06;2.80;;;1.52;;
21501;SDS011;27639;48.674;9.242;2023-04-28T11:54:33;2.28;;;1.10;;
21501;SDS011;27639;48.674;9.242;2023-04-28T11:57:00;2.70;;;1.08;;
21501;SDS011;27639;48.674;9.242;2023-04-28T11:59:28;1.90;;;0.70;;
21501;SDS011;27639;48.674;9.242;2023-04-28T12:01:57;1.88;;;0.70;;
21501;SDS011;27639;48.674;9.242;2023-04-28T12:12:06;2.42;;;0.80;;
21501;SDS011;27639;48.674;9.242;2023-04-28T12:17:40;2.10;;;0.90;;
21501;SDS011;27639;48.674;9.242;2023-04-28T12:20:07;2.75;;;1.38;;
21501;SDS011;27639;48.674;9.242;2023-04-28T12:22:45;7.03;;;2.92;;
21501;SDS011;27639;48.674;9.242;2023-04-28T12:25:15;5.30;;;2.75;;
21501;SDS011;27639;48.674;9.242;2023-04-28T12:28:02;3.88;;;2.00;;
21501;SDS011;27639;48.674;9.242;2023-04-28T12:30:32;3.97;;;1.38;;
21501;SDS011;27639;48.674;9.242;2023-04-28T12:32:59;2.95;;;1.10;;
21501;SDS011;27639;48.674;9.242;2023-04-28T12:35:25;2.67;;;0.90;;
21501;SDS011;27639;48.674;9.242;2023-04-28T12:37:52;3.05;;;1.30;;
21501;SDS011;27639;48.674;9.242;2023-04-28T12:40:20;3.25;;;1.20;;
21501;SDS011;27639;48.674;9.242;2023-04-28T12:42:46;2.72;;;0.93;;
21501;SDS011;27639;48.674;9.242;2023-04-28T12:45:11;3.13;;;0.90;;
21501;SDS011;27639;48.674;9.242;2023-04-28T12:47:37;2.85;;;0.93;;
21501;SDS011;27639;48.674;9.242;2023-04-28T12:50:04;2.95;;;1.08;;
21501;SDS011;27639;48.674;9.242;2023-04-28T12:52:30;2.03;;;0.60;;
21501;SDS011;27639;48.674;9.242;2023-04-28T12:54:58;3.00;;;1.00;;
21501;SDS011;27639;48.674;9.242;2023-04-28T12:57:23;1.92;;;0.90;;
21501;SDS011;27639;48.674;9.242;2023-04-28T12:59:50;2.25;;;0.85;;
21501;SDS011;27639;48.674;9.242;2023-04-28T13:02:16;2.47;;;0.80;;
21501;SDS011;27639;48.674;9.242;2023-04-28T13:04:43;2.33;;;0.82;;
21501;SDS011;27639;48.674;9.242;2023-04-28T13:07:10;1.50;;;0.60;;
21501;SDS011;27639;48.674;9.242;2023-04-28T13:09:36;2.17;;;0.90;;
21501;SDS011;27639;48.674;9.242;2023-04-28T13:12:02;4.05;;;0.98;;
21501;SDS011;27639;48.674;9.242;2023-04-28T13:14:28;2.00;;;0.82;;
21501;SDS011;27639;48.674;9.242;2023-04-28T13:16:55;1.70;;;0.65;;
21501;SDS011;27639;48.674;9.242;2023-04-28T13:19:21;2.35;;;1.05;;
21501;SDS011;27639;48.674;9.242;2023-04-28T13:21:48;2.38;;;0.80;;
21501;SDS011;27639;48.674;9.242;2023-04-28T13:24:14;1.90;;;0.80;;
21501;SDS011;27639;48.674;9.242;2023-04-28T13:26:39;1.98;;;0.70;;
21501;SDS011;27639;48.674;9.242;2023-04-28T13:29:05;2.38;;;0.70;;
21501;SDS011;27639;48.674;9.242;2023-04-28T13:31:33;3.88;;;0.98;;
21501;SDS011;27639;48.674;9.242;2023-04-28T13:33:59;2.13;;;0.98;;
21501;SDS011;27639;48.674;9.242;2023-04-28T13:36:29;4.03;;;1.90;;
21501;SDS011;27639;48.674;9.242;2023-04-28T13:38:55;3.38;;;1.63;;
21501;SDS011;27639;48.674;9.242;2023-04-28T13:41:20;3.15;;;1.50;;
21501;SDS011;27639;48.674;9.242;2023-04-28T13:43:46;2.65;;;1.10;;
21501;SDS011;27639;48.674;9.242;2023-04-28T13:46:12;2.17;;;0.90;;
21501;SDS011;27639;48.674;9.242;2023-04-28T13:48:37;4.00;;;1.00;;
21501;SDS011;27639;48.674;9.242;2023-04-28T13:51:05;2.33;;;0.73;;
21501;SDS011;27639;48.674;9.242;2023-04-28T13:53:32;2.15;;;0.73;;
21501;SDS011;27639;48.674;9.242;2023-04-28T13:55:59;1.63;;;0.80;;
21501;SDS011;27639;48.674;9.242;2023-04-28T13:58:26;1.50;;;0.60;;
21501;SDS011;27639;48.674;9.242;2023-04-28T14:00:52;2.00;;;0.88;;
21501;SDS011;27639;48.674;9.242;2023-04-28T14:03:19;2.25;;;0.90;;
21501;SDS011;27639;48.674;9.242;2023-04-28T14:05:48;2.65;;;0.90;;
21501;SDS011;27639;48.674;9.242;2023-04-28T14:08:16;2.47;;;0.63;;
21501;SDS011;27639;48.674;9.242;2023-04-28T14:10:42;2.17;;;0.95;;
21501;SDS011;27639;48.674;9.242;2023-04-28T14:13:08;3.55;;;1.20;;
21501;SDS011;27639;48.674;9.242;2023-04-28T14:15:34;3.35;;;0.80;;
21501;SDS011;27639;48.674;9.242;2023-04-28T14:17:59;1.88;;;0.70;;
21501;SDS011;27639;48.674;9.242;2023-04-28T14:20:25;1.65;;;0.60;;
21501;SDS011;27639;48.674;9.242;2023-04-28T14:22:51;1.35;;;0.60;;
21501;SDS011;27639;48.674;9.242;2023-04-28T14:25:17;1.35;;;0.60;;
21501;SDS011;27639;48.674;9.242;2023-04-28T14:27:43;3.08;;;1.15;;
21501;SDS011;27639;48.674;9.242;2023-04-28T14:30:09;3.80;;;1.27;;
21501;SDS011;27639;48.674;9.242;2023-04-28T14:32:35;3.92;;;1.77;;
21501;SDS011;27639;48.674;9.242;2023-04-28T14:35:02;4.68;;;1.50;;
21501;SDS011;27639;48.674;9.242;2023-04-28T14:37:30;4.45;;;1.60;;
21501;SDS011;27639;48.674;9.242;2023-04-28T14:39:56;3.10;;;1.30;;
21501;SDS011;27639;48.674;9.242;2023-04-28T14:42:26;3.83;;;1.38;;
21501;SDS011;27639;48.674;9.242;2023-04-28T14:44:53;3.30;;;1.65;;
21501;SDS011;27639;48.674;9.242;2023-04-28T14:47:19;3.40;;;1.45;;
21501;SDS011;27639;48.674;9.242;2023-04-28T14:49:45;3.22;;;1.10;;
21501;SDS011;27639;48.674;9.242;2023-04-28T14:52:11;3.33;;;1.30;;
21501;SDS011;27639;48.674;9.242;2023-04-28T14:54:37;2.60;;;1.05;;
21501;SDS011;27639;48.674;9.242;2023-04-28T14:57:03;2.78;;;1.05;;
21501;SDS011;27639;48.674;9.242;2023-04-28T14:59:28;3.58;;;1.63;;
21501;SDS011;27639;48.674;9.242;2023-04-28T15:01:54;2.80;;;1.52;;
21501;SDS011;27639;48.674;9.242;2023-04-28T15:04:20;3.67;;;1.52;;
21501;SDS011;27639;48.674;9.242;2023-04-28T15:06:52;2.55;;;1.20;;
21501;SDS011;27639;48.674;9.242;2023-04-28T15:09:18;3.03;;;1.45;;
21501;SDS011;27639;48.674;9.242;2023-04-28T15:11:43;2.53;;;1.00;;
21501;SDS011;27639;48.674;9.242;2023-04-28T15:14:09;3.35;;;0.80;;
21501;SDS011;27639;48.674;9.242;2023-04-28T15:16:35;2.47;;;1.10;;
21501;SDS011;27639;48.674;9.242;2023-04-28T15:19:00;3.13;;;1.17;;